Port Vincent, Louisiana
Current Conditions -  °F | °C
As of 11:53 AM on Friday 28 Nov 2014 (Local Time) from KBTR Reporting Station
Clear Clear  
Wind Chill: 58°   Ceiling: Unl
Heat Index: 58°   Visibility: 10mi
Dew Point: 31°   Wind: 9mph
Humidity: 36%   Direction: 170°S
Pressure: 30.37"   Gusts: NA
Location:  30.421°N, 90.9008°W
Report Text: KBTR 281753Z 17008KT 10SM CLR 14/M01 A3037 RMK AO2 SLP283 T01441006 10144 20006 58025
Loading
Personal Weather Stations






























Interactive Weather Map New forecast layout! Learn more

10-Day Weather Forecast

Advertisements
Track Severe Weather on mobile